Flight Track Log - Related Links

Times and Time Zones

All times are in EDT time to prevent confusion due to time zone crossing. See the ANE8277 flight status page for this flight to view local times or setup timezone preferences in your user account.

Time Position Orientation Groundspeed Altitude Reporting Facility
EDT Latitude Longitude Course Direction KTS MPH feet Rate Location/Type
Mon 02:41:00 PM 35.6746 -3.3851 319° Northwest  Level Estimated
Mon 02:42:00 PM 35.7049 -3.4183 318° Northwest  Level Estimated
Mon 02:43:00 PM 35.7352 -3.4515 318° Northwest  Level Estimated
Mon 02:44:00 PM 35.7654 -3.4847 318° Northwest  Level Estimated
Mon 02:44:37 PM 35.9430 -3.5430 318° Northwest 254 292 16,000  Level FlightAware ADS-B
Mon 02:45:00 PM 35.7957 -3.5180 318° Northwest  Level Estimated
Mon 02:45:17 PM 35.9810 -3.5790 323° Northwest 254 292 16,000  Level FlightAware ADS-B
Mon 02:45:57 PM 36.0180 -3.6130 323° Northwest 254 292 16,000  Level FlightAware ADS-B
Mon 02:46:42 PM 36.0590 -3.6520 322° Northwest 254 292 16,000  Level FlightAware ADS-B
Mon 02:47:22 PM 36.0970 -3.6880 323° Northwest 253 291 16,000  Level FlightAware ADS-B
Mon 02:48:02 PM 36.1340 -3.7220 323° Northwest 252 290 16,000  Level FlightAware ADS-B
Mon 02:48:47 PM 36.1760 -3.7620 322° Northwest 251 289 16,000  Level FlightAware ADS-B
Mon 02:49:27 PM 36.2130 -3.7970 323° Northwest 250 288 16,000  Level FlightAware ADS-B
Mon 02:50:12 PM 36.2540 -3.8360 323° Northwest 250 288 16,000  Level FlightAware ADS-B
Mon 02:50:52 PM 36.2910 -3.8710 323° Northwest 249 287 16,000 -75 Level FlightAware ADS-B
Mon 02:51:32 PM 36.3290 -3.9060 323° Northwest 254 292 15,900 -375 Descending FlightAware ADS-B
Mon 02:52:12 PM 36.3660 -3.9410 323° Northwest 263 303 15,500 -494 Descending FlightAware ADS-B
Mon 02:52:57 PM 36.4100 -3.9840 322° Northwest 269 310 15,200 -635 Descending FlightAware ADS-B
Mon 02:53:37 PM 36.4490 -4.0200 323° Northwest 262 302 14,600 -988 Descending FlightAware ADS-B
Mon 02:54:22 PM 36.4930 -4.0620 323° Northwest 251 289 13,800 -988 Descending FlightAware ADS-B
Mon 02:55:02 PM 36.5270 -4.0970 320° Northwest 245 282 13,200 -988 Descending FlightAware ADS-B
Mon 02:55:47 PM 36.5590 -4.1490 307° West 243 280 12,400 -1,059 Descending FlightAware ADS-B
Mon 02:56:27 PM 36.5860 -4.1920 308° West 242 278 11,700 -1,275 Descending FlightAware ADS-B
Mon 02:57:07 PM 36.6150 -4.2390 308° West 249 287 10,700 -1,412 Descending FlightAware ADS-B
Mon 02:57:52 PM 36.6430 -4.2880 305° West 250 288 9,700 -1,457 Descending FlightAware ADS-B
Mon 02:58:17 PM 36.6610 -4.3230 303° West 253 291 9,000 -1,527 Descending FlightAware ADS-B
Mon 02:58:47 PM 36.6790 -4.3600 301° West 255 293 8,300 -1,333 Descending FlightAware ADS-B
Mon 02:59:02 PM 36.6880 -4.3770 303° West 252 290 8,000 -1,050 Descending FlightAware ADS-B
Mon 02:59:27 PM 36.7030 -4.4090 300° West 245 282 7,600 -1,091 Descending FlightAware ADS-B
Mon 02:59:57 PM 36.7210 -4.4440 303° West 239 275 7,000 -1,067 Descending FlightAware ADS-B
Mon 03:00:12 PM 36.7290 -4.4600 302° West 237 273 6,800 -900 Descending FlightAware ADS-B
Mon 03:00:37 PM 36.7450 -4.4900 304° West 233 268 6,400 -1,091 Descending FlightAware ADS-B
Mon 03:01:07 PM 36.7630 -4.5250 303° West 229 264 5,800 -982 Descending FlightAware ADS-B
Mon 03:01:32 PM 36.7760 -4.5510 302° West 229 264 5,500 -1,309 Descending FlightAware ADS-B
Mon 03:02:02 PM 36.7950 -4.5850 305° West 235 270 4,600 -1,733 Descending FlightAware ADS-B
Mon 03:02:17 PM 36.8030 -4.6010 302° West 235 270 4,200 -900 Descending FlightAware ADS-B
Mon 03:02:42 PM 36.8160 -4.6300 299° West 215 247 4,000 -300 Descending FlightAware ADS-B
Mon 03:02:57 PM 36.8130 -4.6480 258° West 203 234 4,000  Level FlightAware ADS-B
Mon 03:03:12 PM 36.8020 -4.6580 216° Southwest 204 235 4,000  Level FlightAware ADS-B
Mon 03:03:17 PM 36.7970 -4.6590 189° South 208 239 4,000  Level FlightAware ADS-B
Mon 03:03:42 PM 36.7770 -4.6450 151° Southeast 204 235 4,000 -840 Level FlightAware ADS-B
Mon 03:04:07 PM 36.7630 -4.6220 127° Southeast 207 238 3,300 -1,650 Descending FlightAware ADS-B
Mon 03:04:22 PM 36.7530 -4.6090 134° Southeast 206 237 2,900 -1,467 Descending FlightAware ADS-B
Mon 03:04:52 PM 36.7350 -4.5830 131° Southeast 187 215 2,200 -873 Descending FlightAware ADS-B
Mon 03:05:17 PM 36.7220 -4.5650 132° Southeast 136 157 2,100 -873 Descending FlightAware ADS-B
Mon 03:05:47 PM 36.7100 -4.5490 133° Southeast 115 132 1,400 -1,418 Descending FlightAware ADS-B
Mon 03:06:12 PM 36.7020 -4.5370 130° Southeast 108 124 800 -1,200 Descending FlightAware ADS-B
Mon 03:06:42 PM 36.6920 -4.5240 134° Southeast 104 120 300 -800 Descending FlightAware ADS-B
Mon 03:06:57 PM 36.6880 -4.5170 125° Southeast 101 116 200 -400 Descending FlightAware ADS-B
Mon 03:07:22 PM 36.6800 -4.5060 132° Southeast 85 98 -480 Descending FlightAware ADS-B

Login

Don't have an account? Register now (free) for customized features, flight alerts, and more!